Flight Track Log - Related Links

Times and Time Zones

All times are in EDT time to prevent confusion due to time zone crossing. See the EGF4039 flight status page for this flight to view local times or setup timezone preferences in your user account.

Time Position Orientation Groundspeed Altitude Reporting Facility
EDT Latitude Longitude Course Direction KTS MPH feet Rate Location/Type
Tue 05:02:20 PM 42.5767 -92.4197 97° East 165 190 23,000  Level Chicago Center
Tue 05:03:22 PM 42.6228 -92.3753 35° Northeast 271 312 5,000 -7,161 Descending Chicago Center
Tue 05:04:24 PM 42.5994 -92.2828 109° East 267 307 8,200 2,806 Climbing Chicago Center
Tue 05:05:26 PM 42.5672 -92.1875 115° Southeast 274 315 10,800 2,081 Climbing Chicago Center
Tue 05:06:28 PM 42.5358 -92.0725 110° East 319 367 12,500 1,548 Climbing Chicago Center
Tue 05:07:00 PM 42.4828 -91.6278 97° East  Level FlightAware Approximate
Tue 05:07:30 PM 42.5300 -91.9308 93° East 378 435 14,000  Level Chicago Center
Tue 05:08:32 PM 42.5097 -91.7572 99° East 397 457 16,200 2,081 Climbing Chicago Center
Tue 05:09:34 PM 42.4956 -91.6097 97° East 402 463 18,300 1,984 Climbing Chicago Center
Tue 05:10:36 PM 42.4800 -91.4606 98° East 407 468 20,300 2,081 Climbing Chicago Center
Tue 05:11:38 PM 42.4614 -91.2786 98° East 412 474 22,600 1,296 Climbing Chicago Center
Tue 05:12:41 PM 42.4444 -91.1181 98° East 436 502 23,000 192 Climbing Chicago Center
Tue 05:13:43 PM 42.4267 -90.9436 98° East 469 540 23,000  Level Chicago Center
Tue 05:14:45 PM 42.4067 -90.7750 99° East 465 535 23,000  Level Chicago Center
Tue 05:15:47 PM 42.4100 -90.6075 88° East 458 527 23,000  Level Chicago Center
Tue 05:16:49 PM 42.4314 -90.4089 82° East 452 520 23,000  Level Chicago Center
Tue 05:17:51 PM 42.4483 -90.2417 82° East 453 521 23,000  Level Chicago Center
Tue 05:18:53 PM 42.4575 -90.0700 86° East 461 531 23,000  Level Chicago Center
Tue 05:19:55 PM 42.4453 -89.8944 95° East 464 534 23,000 -768 Level Chicago Center
Tue 05:20:58 PM 42.4356 -89.6897 94° East 469 540 21,400 -1,742 Descending Chicago Center
Tue 05:21:59 PM 42.4278 -89.5233 94° East 450 518 19,400 -2,000 Descending Chicago Center
Tue 05:23:01 PM 42.4206 -89.3639 93° East 429 494 17,300 -1,984 Descending Chicago Center
Tue 05:24:03 PM 42.4122 -89.2075 94° East 420 483 15,300 -1,920 Descending Chicago Center
Tue 05:25:06 PM 42.4053 -89.0489 93° East 423 487 13,300 -2,016 Descending Chicago Center
Tue 05:26:08 PM 42.3950 -88.8764 95° East 399 459 11,100 -1,645 Descending Chicago Center
Tue 05:27:10 PM 42.3886 -88.7542 94° East 334 384 9,900 -1,016 Descending Chicago Center
Tue 05:28:12 PM 42.3825 -88.6392 94° East 313 360 9,000 -435 Descending Chicago Center
Tue 05:29:14 PM 42.3756 -88.5228 95° East 312 359 9,000  Level Chicago Center
Tue 05:30:16 PM 42.3531 -88.4169 106° East 296 341 9,000  Level Chicago Center
Tue 05:31:18 PM 42.3233 -88.3153 112° Southeast 274 315 9,000 -484 Level Chicago Center
Tue 05:32:20 PM 42.2811 -88.2497 131° Southeast 237 273 8,000 -871 Descending Chicago Center
Tue 05:33:22 PM 42.2353 -88.2092 147° Southeast 200 230 7,200 -1,210 Descending Chicago Center
Tue 05:34:24 PM 42.1853 -88.1528 140° Southeast 195 224 5,500 -1,296 Descending Chicago Center
Tue 05:35:27 PM 42.1447 -88.1072 140° Southeast 193 222 4,500 -952 Descending Chicago Center

Login

Don't have an account? Register now (free) for customized features, flight alerts, and more!